Terminal Aerodrome Forecast
Issued by NWS

Home | Current Version | Previous Version | Text Only | Print | Product List | Glossary On
Versions: 1 2 3 4 5 6 7 8 9 10 11 12 13 14
000
FTUS45 KREV 190500
TAFMMH
TAF
KMMH 190534Z 1906/2006 VRB03KT P6SM SCT120 BKN180
     FM191600 16006KT P6SM FEW070 BKN120
     FM192300 23008KT P6SM VCSH SCT030 OVC050
      AMD NOT SKED 1906/1914=

USA.gov is the U.S. government's official web portal to all federal, state and local government web resources and services.